sensor_id;sensor_type;location;lat;lon;timestamp;temperature;humidity
65462;DHT22;53236;43.666;18.444;2023-11-19T00:02:19;-0.80;99.90
65462;DHT22;53236;43.666;18.444;2023-11-19T00:04:45;-0.80;99.90
65462;DHT22;53236;43.666;18.444;2023-11-19T00:07:10;-0.70;99.90
65462;DHT22;53236;43.666;18.444;2023-11-19T00:09:38;-0.80;99.90
65462;DHT22;53236;43.666;18.444;2023-11-19T00:12:05;-0.90;99.90
65462;DHT22;53236;43.666;18.444;2023-11-19T00:14:31;-0.90;99.90
65462;DHT22;53236;43.666;18.444;2023-11-19T00:16:57;-0.90;99.90
65462;DHT22;53236;43.666;18.444;2023-11-19T00:19:23;-0.90;99.90
65462;DHT22;53236;43.666;18.444;2023-11-19T00:21:49;-0.90;99.90
65462;DHT22;53236;43.666;18.444;2023-11-19T00:24:14;-1.00;99.90
65462;DHT22;53236;43.666;18.444;2023-11-19T00:26:42;-0.90;99.90
65462;DHT22;53236;43.666;18.444;2023-11-19T00:29:08;-1.00;99.90
65462;DHT22;53236;43.666;18.444;2023-11-19T00:31:34;-1.20;99.90
65462;DHT22;53236;43.666;18.444;2023-11-19T00:34:00;-1.30;99.90
65462;DHT22;53236;43.666;18.444;2023-11-19T00:36:27;-1.30;99.90
65462;DHT22;53236;43.666;18.444;2023-11-19T00:38:54;-1.40;99.90
65462;DHT22;53236;43.666;18.444;2023-11-19T00:41:20;-1.50;99.90
65462;DHT22;53236;43.666;18.444;2023-11-19T00:43:46;-1.60;99.90
65462;DHT22;53236;43.666;18.444;2023-11-19T00:46:12;-1.70;99.90
65462;DHT22;53236;43.666;18.444;2023-11-19T00:48:39;-1.70;99.90
65462;DHT22;53236;43.666;18.444;2023-11-19T00:51:05;-1.60;99.90
65462;DHT22;53236;43.666;18.444;2023-11-19T00:53:31;-1.60;99.90
65462;DHT22;53236;43.666;18.444;2023-11-19T00:55:58;-1.70;99.90
65462;DHT22;53236;43.666;18.444;2023-11-19T00:58:24;-1.70;99.90
65462;DHT22;53236;43.666;18.444;2023-11-19T01:00:49;-1.70;99.90
65462;DHT22;53236;43.666;18.444;2023-11-19T01:03:15;-1.70;99.90
65462;DHT22;53236;43.666;18.444;2023-11-19T01:05:44;-1.80;99.90
65462;DHT22;53236;43.666;18.444;2023-11-19T01:08:10;-1.90;99.90
65462;DHT22;53236;43.666;18.444;2023-11-19T01:10:39;-2.00;99.90
65462;DHT22;53236;43.666;18.444;2023-11-19T01:13:05;-2.00;99.90
65462;DHT22;53236;43.666;18.444;2023-11-19T01:15:33;-2.10;99.90
65462;DHT22;53236;43.666;18.444;2023-11-19T01:17:59;-2.20;99.90
65462;DHT22;53236;43.666;18.444;2023-11-19T01:20:26;-2.20;99.90
65462;DHT22;53236;43.666;18.444;2023-11-19T01:22:52;-2.20;99.90
65462;DHT22;53236;43.666;18.444;2023-11-19T01:25:18;-2.40;99.90
65462;DHT22;53236;43.666;18.444;2023-11-19T01:27:43;-2.30;99.90
65462;DHT22;53236;43.666;18.444;2023-11-19T01:30:10;-2.40;99.90
65462;DHT22;53236;43.666;18.444;2023-11-19T01:32:39;-2.40;99.90
65462;DHT22;53236;43.666;18.444;2023-11-19T01:35:05;-2.50;99.90
65462;DHT22;53236;43.666;18.444;2023-11-19T01:37:31;-2.60;99.90
65462;DHT22;53236;43.666;18.444;2023-11-19T01:39:57;-2.60;99.90
65462;DHT22;53236;43.666;18.444;2023-11-19T01:42:23;-2.60;99.90
65462;DHT22;53236;43.666;18.444;2023-11-19T01:45:00;-2.70;99.90
65462;DHT22;53236;43.666;18.444;2023-11-19T01:47:27;-2.80;99.90
65462;DHT22;53236;43.666;18.444;2023-11-19T01:49:54;-2.80;99.90
65462;DHT22;53236;43.666;18.444;2023-11-19T01:52:22;-2.80;99.90
65462;DHT22;53236;43.666;18.444;2023-11-19T01:54:48;-2.80;99.90
65462;DHT22;53236;43.666;18.444;2023-11-19T01:57:15;-2.80;99.90
65462;DHT22;53236;43.666;18.444;2023-11-19T01:59:40;-2.90;99.90
65462;DHT22;53236;43.666;18.444;2023-11-19T02:02:07;-2.90;99.90
65462;DHT22;53236;43.666;18.444;2023-11-19T02:04:33;-2.90;99.90
65462;DHT22;53236;43.666;18.444;2023-11-19T02:07:00;-2.80;99.90
65462;DHT22;53236;43.666;18.444;2023-11-19T02:09:26;-2.90;99.90
65462;DHT22;53236;43.666;18.444;2023-11-19T02:11:53;-2.90;99.90
65462;DHT22;53236;43.666;18.444;2023-11-19T02:14:24;-2.90;99.90
65462;DHT22;53236;43.666;18.444;2023-11-19T02:16:51;-3.00;99.90
65462;DHT22;53236;43.666;18.444;2023-11-19T02:19:19;-3.00;99.90
65462;DHT22;53236;43.666;18.444;2023-11-19T02:21:45;-3.00;99.90
65462;DHT22;53236;43.666;18.444;2023-11-19T02:24:13;-3.00;99.90
65462;DHT22;53236;43.666;18.444;2023-11-19T02:29:10;-3.10;99.90
65462;DHT22;53236;43.666;18.444;2023-11-19T02:31:35;-3.20;99.90
65462;DHT22;53236;43.666;18.444;2023-11-19T02:34:01;-3.20;99.90
65462;DHT22;53236;43.666;18.444;2023-11-19T02:36:28;-3.30;99.90
65462;DHT22;53236;43.666;18.444;2023-11-19T02:38:54;-3.30;99.90
65462;DHT22;53236;43.666;18.444;2023-11-19T02:41:20;-3.30;99.90
65462;DHT22;53236;43.666;18.444;2023-11-19T02:43:46;-3.20;99.90
65462;DHT22;53236;43.666;18.444;2023-11-19T02:46:14;-3.30;99.90
65462;DHT22;53236;43.666;18.444;2023-11-19T02:48:39;-3.30;99.90
65462;DHT22;53236;43.666;18.444;2023-11-19T02:51:06;-3.30;99.90
65462;DHT22;53236;43.666;18.444;2023-11-19T02:53:35;-3.30;99.90
65462;DHT22;53236;43.666;18.444;2023-11-19T02:56:03;-3.20;99.90
65462;DHT22;53236;43.666;18.444;2023-11-19T02:58:37;-3.20;99.90
65462;DHT22;53236;43.666;18.444;2023-11-19T03:01:03;-3.20;99.90
65462;DHT22;53236;43.666;18.444;2023-11-19T03:03:38;-3.30;99.90
65462;DHT22;53236;43.666;18.444;2023-11-19T03:06:06;-3.40;99.90
65462;DHT22;53236;43.666;18.444;2023-11-19T03:08:35;-3.40;99.90
65462;DHT22;53236;43.666;18.444;2023-11-19T03:11:01;-3.40;99.90
65462;DHT22;53236;43.666;18.444;2023-11-19T03:13:27;-3.50;99.90
65462;DHT22;53236;43.666;18.444;2023-11-19T03:15:53;-3.50;99.90
65462;DHT22;53236;43.666;18.444;2023-11-19T03:18:21;-3.50;99.90
65462;DHT22;53236;43.666;18.444;2023-11-19T03:20:47;-3.60;99.90
65462;DHT22;53236;43.666;18.444;2023-11-19T03:23:13;-3.60;99.90
65462;DHT22;53236;43.666;18.444;2023-11-19T03:25:39;-3.60;99.90
65462;DHT22;53236;43.666;18.444;2023-11-19T03:28:05;-3.60;99.90
65462;DHT22;53236;43.666;18.444;2023-11-19T03:30:32;-3.70;99.90
65462;DHT22;53236;43.666;18.444;2023-11-19T03:32:58;-3.70;99.90
65462;DHT22;53236;43.666;18.444;2023-11-19T03:35:25;-3.70;99.90
65462;DHT22;53236;43.666;18.444;2023-11-19T03:37:51;-3.70;99.90
65462;DHT22;53236;43.666;18.444;2023-11-19T03:40:17;-3.80;99.90
65462;DHT22;53236;43.666;18.444;2023-11-19T03:42:45;-3.80;99.90
65462;DHT22;53236;43.666;18.444;2023-11-19T03:45:11;-3.70;99.90
65462;DHT22;53236;43.666;18.444;2023-11-19T03:47:37;-3.80;99.90
65462;DHT22;53236;43.666;18.444;2023-11-19T03:50:04;-3.70;99.90
65462;DHT22;53236;43.666;18.444;2023-11-19T03:52:30;-3.80;99.90
65462;DHT22;53236;43.666;18.444;2023-11-19T03:54:56;-3.80;99.90
65462;DHT22;53236;43.666;18.444;2023-11-19T03:57:23;-3.80;99.90
65462;DHT22;53236;43.666;18.444;2023-11-19T03:59:49;-3.90;99.90
65462;DHT22;53236;43.666;18.444;2023-11-19T04:02:15;-3.90;99.90
65462;DHT22;53236;43.666;18.444;2023-11-19T04:04:41;-3.90;99.90
65462;DHT22;53236;43.666;18.444;2023-11-19T04:07:07;-3.90;99.90
65462;DHT22;53236;43.666;18.444;2023-11-19T04:09:33;-3.90;99.90
65462;DHT22;53236;43.666;18.444;2023-11-19T04:11:59;-4.00;99.90
65462;DHT22;53236;43.666;18.444;2023-11-19T04:14:26;-4.00;99.90
65462;DHT22;53236;43.666;18.444;2023-11-19T04:16:52;-4.00;99.90
65462;DHT22;53236;43.666;18.444;2023-11-19T04:19:19;-4.00;99.90
65462;DHT22;53236;43.666;18.444;2023-11-19T04:21:45;-4.00;99.90
65462;DHT22;53236;43.666;18.444;2023-11-19T04:24:11;-4.10;99.90
65462;DHT22;53236;43.666;18.444;2023-11-19T04:26:45;-4.10;99.90
65462;DHT22;53236;43.666;18.444;2023-11-19T04:29:14;-4.10;99.90
65462;DHT22;53236;43.666;18.444;2023-11-19T04:31:41;-4.20;99.90
65462;DHT22;53236;43.666;18.444;2023-11-19T04:34:07;-4.20;99.90
65462;DHT22;53236;43.666;18.444;2023-11-19T04:36:33;-4.20;99.90
65462;DHT22;53236;43.666;18.444;2023-11-19T04:39:00;-4.20;99.90
65462;DHT22;53236;43.666;18.444;2023-11-19T04:41:26;-4.20;99.90
65462;DHT22;53236;43.666;18.444;2023-11-19T04:43:55;-4.20;99.90
65462;DHT22;53236;43.666;18.444;2023-11-19T04:46:21;-4.30;99.90
65462;DHT22;53236;43.666;18.444;2023-11-19T04:48:49;-4.30;99.90
65462;DHT22;53236;43.666;18.444;2023-11-19T04:51:15;-4.20;99.90
65462;DHT22;53236;43.666;18.444;2023-11-19T04:53:41;-4.20;99.90
65462;DHT22;53236;43.666;18.444;2023-11-19T04:56:10;-4.30;99.90
65462;DHT22;53236;43.666;18.444;2023-11-19T04:58:37;-4.30;99.90
65462;DHT22;53236;43.666;18.444;2023-11-19T05:01:03;-4.30;99.90
65462;DHT22;53236;43.666;18.444;2023-11-19T05:03:30;-4.30;99.90
65462;DHT22;53236;43.666;18.444;2023-11-19T05:05:57;-4.30;99.90
65462;DHT22;53236;43.666;18.444;2023-11-19T05:08:23;-4.30;99.90
65462;DHT22;53236;43.666;18.444;2023-11-19T05:10:48;-4.30;99.90
65462;DHT22;53236;43.666;18.444;2023-11-19T05:13:14;-4.40;99.90
65462;DHT22;53236;43.666;18.444;2023-11-19T05:15:40;-4.50;99.90
65462;DHT22;53236;43.666;18.444;2023-11-19T05:18:06;-4.40;99.90
65462;DHT22;53236;43.666;18.444;2023-11-19T05:20:32;-4.30;99.90
65462;DHT22;53236;43.666;18.444;2023-11-19T05:22:58;-4.30;99.90
65462;DHT22;53236;43.666;18.444;2023-11-19T05:25:26;-4.40;99.90
65462;DHT22;53236;43.666;18.444;2023-11-19T05:27:52;-4.40;99.90
65462;DHT22;53236;43.666;18.444;2023-11-19T05:30:18;-4.50;99.90
65462;DHT22;53236;43.666;18.444;2023-11-19T05:32:44;-4.50;99.90
65462;DHT22;53236;43.666;18.444;2023-11-19T05:35:11;-4.40;99.90
65462;DHT22;53236;43.666;18.444;2023-11-19T05:37:37;-4.50;99.90
65462;DHT22;53236;43.666;18.444;2023-11-19T05:40:03;-4.50;99.90
65462;DHT22;53236;43.666;18.444;2023-11-19T05:42:32;-4.50;99.90
65462;DHT22;53236;43.666;18.444;2023-11-19T05:44:58;-4.60;99.90
65462;DHT22;53236;43.666;18.444;2023-11-19T05:47:23;-4.50;99.90
65462;DHT22;53236;43.666;18.444;2023-11-19T05:49:49;-4.50;99.90
65462;DHT22;53236;43.666;18.444;2023-11-19T05:52:15;-4.50;99.90
65462;DHT22;53236;43.666;18.444;2023-11-19T05:54:41;-4.40;99.90
65462;DHT22;53236;43.666;18.444;2023-11-19T05:57:07;-4.40;99.90
65462;DHT22;53236;43.666;18.444;2023-11-19T05:59:36;-4.40;99.90
65462;DHT22;53236;43.666;18.444;2023-11-19T06:02:04;-4.30;99.90
65462;DHT22;53236;43.666;18.444;2023-11-19T06:04:30;-4.30;99.90
65462;DHT22;53236;43.666;18.444;2023-11-19T06:06:56;-4.30;99.90
65462;DHT22;53236;43.666;18.444;2023-11-19T06:09:22;-4.20;99.90
65462;DHT22;53236;43.666;18.444;2023-11-19T06:11:51;-4.20;99.90
65462;DHT22;53236;43.666;18.444;2023-11-19T06:14:18;-4.10;99.90
65462;DHT22;53236;43.666;18.444;2023-11-19T06:16:44;-4.10;99.90
65462;DHT22;53236;43.666;18.444;2023-11-19T06:19:10;-4.00;99.90
65462;DHT22;53236;43.666;18.444;2023-11-19T06:21:37;-3.90;99.90
65462;DHT22;53236;43.666;18.444;2023-11-19T06:24:03;-3.90;99.90
65462;DHT22;53236;43.666;18.444;2023-11-19T06:26:29;-3.80;99.90
65462;DHT22;53236;43.666;18.444;2023-11-19T06:28:54;-3.70;99.90
65462;DHT22;53236;43.666;18.444;2023-11-19T06:31:20;-3.70;99.90
65462;DHT22;53236;43.666;18.444;2023-11-19T06:33:46;-3.50;99.90
65462;DHT22;53236;43.666;18.444;2023-11-19T06:36:14;-3.50;99.90
65462;DHT22;53236;43.666;18.444;2023-11-19T06:38:42;-3.40;99.90
65462;DHT22;53236;43.666;18.444;2023-11-19T06:41:08;-3.10;99.90
65462;DHT22;53236;43.666;18.444;2023-11-19T06:43:37;-1.50;99.90
65462;DHT22;53236;43.666;18.444;2023-11-19T06:46:03;1.40;99.90
65462;DHT22;53236;43.666;18.444;2023-11-19T06:48:32;4.00;99.90
65462;DHT22;53236;43.666;18.444;2023-11-19T06:50:59;6.60;99.90
65462;DHT22;53236;43.666;18.444;2023-11-19T06:53:25;8.30;75.00
65462;DHT22;53236;43.666;18.444;2023-11-19T06:55:53;10.30;64.60
65462;DHT22;53236;43.666;18.444;2023-11-19T06:58:19;11.80;56.80
65462;DHT22;53236;43.666;18.444;2023-11-19T07:00:45;13.00;53.30
65462;DHT22;53236;43.666;18.444;2023-11-19T07:03:12;14.60;49.70
65462;DHT22;53236;43.666;18.444;2023-11-19T07:05:38;15.50;46.40
65462;DHT22;53236;43.666;18.444;2023-11-19T07:08:06;16.10;45.80
65462;DHT22;53236;43.666;18.444;2023-11-19T07:10:33;18.20;43.60
65462;DHT22;53236;43.666;18.444;2023-11-19T07:12:59;19.00;41.00
65462;DHT22;53236;43.666;18.444;2023-11-19T07:15:25;19.80;39.90
65462;DHT22;53236;43.666;18.444;2023-11-19T07:17:51;20.40;39.90
65462;DHT22;53236;43.666;18.444;2023-11-19T07:20:19;20.90;37.60
65462;DHT22;53236;43.666;18.444;2023-11-19T07:22:45;21.10;37.50
65462;DHT22;53236;43.666;18.444;2023-11-19T07:25:14;21.20;36.50
65462;DHT22;53236;43.666;18.444;2023-11-19T07:27:40;20.80;36.90
65462;DHT22;53236;43.666;18.444;2023-11-19T07:30:06;20.80;37.30
65462;DHT22;53236;43.666;18.444;2023-11-19T07:32:35;21.80;36.30
65462;DHT22;53236;43.666;18.444;2023-11-19T07:35:01;22.50;36.40
65462;DHT22;53236;43.666;18.444;2023-11-19T07:37:27;23.30;34.60
65462;DHT22;53236;43.666;18.444;2023-11-19T07:39:53;25.40;33.30
65462;DHT22;53236;43.666;18.444;2023-11-19T07:42:19;25.10;31.90
65462;DHT22;53236;43.666;18.444;2023-11-19T07:44:45;22.50;33.10
65462;DHT22;53236;43.666;18.444;2023-11-19T07:47:11;21.00;35.70
65462;DHT22;53236;43.666;18.444;2023-11-19T07:49:38;21.40;35.70
65462;DHT22;53236;43.666;18.444;2023-11-19T07:52:04;22.40;35.20
65462;DHT22;53236;43.666;18.444;2023-11-19T07:54:30;23.20;34.40
65462;DHT22;53236;43.666;18.444;2023-11-19T07:56:56;22.50;35.70
65462;DHT22;53236;43.666;18.444;2023-11-19T07:59:22;22.90;34.50
65462;DHT22;53236;43.666;18.444;2023-11-19T08:01:47;22.60;33.60
65462;DHT22;53236;43.666;18.444;2023-11-19T08:04:13;21.60;34.40
65462;DHT22;53236;43.666;18.444;2023-11-19T08:06:39;19.10;36.70
65462;DHT22;53236;43.666;18.444;2023-11-19T08:09:05;17.30;39.00
65462;DHT22;53236;43.666;18.444;2023-11-19T08:11:32;16.20;41.60
65462;DHT22;53236;43.666;18.444;2023-11-19T08:13:58;15.10;42.90
65462;DHT22;53236;43.666;18.444;2023-11-19T08:16:24;13.80;44.20
65462;DHT22;53236;43.666;18.444;2023-11-19T08:18:50;13.40;45.90
65462;DHT22;53236;43.666;18.444;2023-11-19T08:21:15;13.20;45.50
65462;DHT22;53236;43.666;18.444;2023-11-19T08:23:41;13.90;45.50
65462;DHT22;53236;43.666;18.444;2023-11-19T08:26:07;13.80;46.10
65462;DHT22;53236;43.666;18.444;2023-11-19T08:28:33;14.30;45.20
65462;DHT22;53236;43.666;18.444;2023-11-19T08:31:00;14.50;44.60
65462;DHT22;53236;43.666;18.444;2023-11-19T08:33:26;14.90;44.30
65462;DHT22;53236;43.666;18.444;2023-11-19T08:35:52;15.40;44.10
65462;DHT22;53236;43.666;18.444;2023-11-19T08:38:18;15.60;43.00
65462;DHT22;53236;43.666;18.444;2023-11-19T08:40:44;15.10;44.30
65462;DHT22;53236;43.666;18.444;2023-11-19T08:43:10;15.50;44.50
65462;DHT22;53236;43.666;18.444;2023-11-19T08:45:36;14.90;44.30
65462;DHT22;53236;43.666;18.444;2023-11-19T08:48:01;15.60;44.20
65462;DHT22;53236;43.666;18.444;2023-11-19T08:50:27;17.70;41.90
65462;DHT22;53236;43.666;18.444;2023-11-19T08:52:53;18.80;40.60
65462;DHT22;53236;43.666;18.444;2023-11-19T08:55:19;19.80;39.20
65462;DHT22;53236;43.666;18.444;2023-11-19T08:57:45;21.00;37.20
65462;DHT22;53236;43.666;18.444;2023-11-19T09:00:11;23.00;34.30
65462;DHT22;53236;43.666;18.444;2023-11-19T09:02:39;23.30;33.40
65462;DHT22;53236;43.666;18.444;2023-11-19T09:05:05;23.50;33.20
65462;DHT22;53236;43.666;18.444;2023-11-19T09:07:33;24.70;31.80
65462;DHT22;53236;43.666;18.444;2023-11-19T09:09:59;25.30;30.50
65462;DHT22;53236;43.666;18.444;2023-11-19T09:12:24;25.20;30.70
65462;DHT22;53236;43.666;18.444;2023-11-19T09:14:50;25.00;30.70
65462;DHT22;53236;43.666;18.444;2023-11-19T09:17:16;26.30;30.50
65462;DHT22;53236;43.666;18.444;2023-11-19T09:19:43;26.00;30.90
65462;DHT22;53236;43.666;18.444;2023-11-19T09:22:09;25.00;30.50
65462;DHT22;53236;43.666;18.444;2023-11-19T09:24:35;24.20;31.30
65462;DHT22;53236;43.666;18.444;2023-11-19T09:27:00;23.50;31.10
65462;DHT22;53236;43.666;18.444;2023-11-19T09:29:26;23.70;31.70
65462;DHT22;53236;43.666;18.444;2023-11-19T09:31:52;23.00;32.20
65462;DHT22;53236;43.666;18.444;2023-11-19T09:34:18;21.70;32.20
65462;DHT22;53236;43.666;18.444;2023-11-19T09:36:43;20.80;33.80
65462;DHT22;53236;43.666;18.444;2023-11-19T09:39:13;20.60;34.30
65462;DHT22;53236;43.666;18.444;2023-11-19T09:41:44;20.70;34.70
65462;DHT22;53236;43.666;18.444;2023-11-19T09:44:11;20.90;33.90
65462;DHT22;53236;43.666;18.444;2023-11-19T09:46:41;21.20;33.60
65462;DHT22;53236;43.666;18.444;2023-11-19T09:49:08;20.50;33.70
65462;DHT22;53236;43.666;18.444;2023-11-19T09:51:35;19.90;33.30
65462;DHT22;53236;43.666;18.444;2023-11-19T09:54:01;20.10;34.00
65462;DHT22;53236;43.666;18.444;2023-11-19T09:56:29;20.90;31.90
65462;DHT22;53236;43.666;18.444;2023-11-19T09:58:59;21.90;30.60
65462;DHT22;53236;43.666;18.444;2023-11-19T10:01:25;23.70;29.80
65462;DHT22;53236;43.666;18.444;2023-11-19T10:03:52;25.70;28.60
65462;DHT22;53236;43.666;18.444;2023-11-19T10:06:20;27.90;29.00
65462;DHT22;53236;43.666;18.444;2023-11-19T10:08:47;29.70;27.50
65462;DHT22;53236;43.666;18.444;2023-11-19T10:11:13;30.50;27.10
65462;DHT22;53236;43.666;18.444;2023-11-19T10:13:39;31.20;27.10
65462;DHT22;53236;43.666;18.444;2023-11-19T10:16:12;31.10;26.30
65462;DHT22;53236;43.666;18.444;2023-11-19T10:18:49;30.80;26.20
65462;DHT22;53236;43.666;18.444;2023-11-19T10:21:18;30.90;25.80
65462;DHT22;53236;43.666;18.444;2023-11-19T10:23:52;30.30;26.70
65462;DHT22;53236;43.666;18.444;2023-11-19T10:26:20;30.20;25.00
65462;DHT22;53236;43.666;18.444;2023-11-19T10:28:49;29.10;25.80
65462;DHT22;53236;43.666;18.444;2023-11-19T10:31:16;29.50;25.60
65462;DHT22;53236;43.666;18.444;2023-11-19T10:33:43;31.00;26.10
65462;DHT22;53236;43.666;18.444;2023-11-19T10:36:11;32.20;25.70
65462;DHT22;53236;43.666;18.444;2023-11-19T10:38:38;32.60;25.30
65462;DHT22;53236;43.666;18.444;2023-11-19T10:41:04;32.60;23.70
65462;DHT22;53236;43.666;18.444;2023-11-19T10:43:31;32.60;25.40
65462;DHT22;53236;43.666;18.444;2023-11-19T10:46:13;32.80;24.30
65462;DHT22;53236;43.666;18.444;2023-11-19T10:48:40;33.10;24.20
65462;DHT22;53236;43.666;18.444;2023-11-19T10:51:07;31.50;25.00
65462;DHT22;53236;43.666;18.444;2023-11-19T10:53:38;31.00;23.80
65462;DHT22;53236;43.666;18.444;2023-11-19T10:56:10;29.60;23.40
65462;DHT22;53236;43.666;18.444;2023-11-19T10:58:37;29.40;23.10
65462;DHT22;53236;43.666;18.444;2023-11-19T11:01:11;30.00;23.30
65462;DHT22;53236;43.666;18.444;2023-11-19T11:03:42;29.50;23.50
65462;DHT22;53236;43.666;18.444;2023-11-19T11:06:13;29.80;23.00
65462;DHT22;53236;43.666;18.444;2023-11-19T11:08:39;29.50;23.90
65462;DHT22;53236;43.666;18.444;2023-11-19T11:11:05;30.20;23.50
65462;DHT22;53236;43.666;18.444;2023-11-19T11:13:33;28.80;23.10
65462;DHT22;53236;43.666;18.444;2023-11-19T11:16:00;28.70;23.80
65462;DHT22;53236;43.666;18.444;2023-11-19T11:18:27;29.30;23.60
65462;DHT22;53236;43.666;18.444;2023-11-19T11:21:15;30.10;23.80
65462;DHT22;53236;43.666;18.444;2023-11-19T11:39:35;29.10;24.50
65462;DHT22;53236;43.666;18.444;2023-11-19T11:45:05;28.00;24.50
65462;DHT22;53236;43.666;18.444;2023-11-19T11:50:12;24.20;26.20
65462;DHT22;53236;43.666;18.444;2023-11-19T11:55:25;20.30;27.70
65462;DHT22;53236;43.666;18.444;2023-11-19T11:57:51;18.80;28.70
65462;DHT22;53236;43.666;18.444;2023-11-19T12:00:29;17.70;30.80
65462;DHT22;53236;43.666;18.444;2023-11-19T12:03:02;16.80;29.80
65462;DHT22;53236;43.666;18.444;2023-11-19T12:05:30;16.30;30.50
65462;DHT22;53236;43.666;18.444;2023-11-19T12:08:00;16.00;30.50
65462;DHT22;53236;43.666;18.444;2023-11-19T12:10:37;15.60;31.00
65462;DHT22;53236;43.666;18.444;2023-11-19T12:13:05;15.40;33.00
65462;DHT22;53236;43.666;18.444;2023-11-19T12:18:31;15.30;31.40
65462;DHT22;53236;43.666;18.444;2023-11-19T12:21:01;15.10;34.40
65462;DHT22;53236;43.666;18.444;2023-11-19T12:23:31;15.10;34.70
65462;DHT22;53236;43.666;18.444;2023-11-19T12:25:58;15.00;34.30
65462;DHT22;53236;43.666;18.444;2023-11-19T12:28:24;14.70;32.90
65462;DHT22;53236;43.666;18.444;2023-11-19T12:30:52;14.60;33.50
65462;DHT22;53236;43.666;18.444;2023-11-19T12:33:19;14.70;35.30
65462;DHT22;53236;43.666;18.444;2023-11-19T12:35:47;14.60;33.10
65462;DHT22;53236;43.666;18.444;2023-11-19T12:38:19;14.60;32.50
65462;DHT22;53236;43.666;18.444;2023-11-19T12:41:08;14.70;32.40
65462;DHT22;53236;43.666;18.444;2023-11-19T12:43:36;14.40;32.10
65462;DHT22;53236;43.666;18.444;2023-11-19T12:46:11;14.20;33.90
65462;DHT22;53236;43.666;18.444;2023-11-19T12:48:42;14.20;33.60
65462;DHT22;53236;43.666;18.444;2023-11-19T12:51:08;14.30;33.40
65462;DHT22;53236;43.666;18.444;2023-11-19T12:53:47;14.20;34.60
65462;DHT22;53236;43.666;18.444;2023-11-19T12:56:14;14.10;34.50
65462;DHT22;53236;43.666;18.444;2023-11-19T12:58:41;14.00;34.10
65462;DHT22;53236;43.666;18.444;2023-11-19T13:01:08;13.90;34.60
65462;DHT22;53236;43.666;18.444;2023-11-19T13:03:37;13.80;34.60
65462;DHT22;53236;43.666;18.444;2023-11-19T13:06:08;13.70;34.20
65462;DHT22;53236;43.666;18.444;2023-11-19T13:08:45;13.60;34.20
65462;DHT22;53236;43.666;18.444;2023-11-19T13:11:14;13.70;36.20
65462;DHT22;53236;43.666;18.444;2023-11-19T13:13:56;13.60;36.70
65462;DHT22;53236;43.666;18.444;2023-11-19T13:16:23;13.50;37.60
65462;DHT22;53236;43.666;18.444;2023-11-19T13:18:49;13.60;37.70
65462;DHT22;53236;43.666;18.444;2023-11-19T13:21:15;13.50;34.60
65462;DHT22;53236;43.666;18.444;2023-11-19T13:23:41;13.40;35.90
65462;DHT22;53236;43.666;18.444;2023-11-19T13:26:07;13.30;36.70
65462;DHT22;53236;43.666;18.444;2023-11-19T13:28:33;13.20;36.80
65462;DHT22;53236;43.666;18.444;2023-11-19T13:30:59;12.90;35.60
65462;DHT22;53236;43.666;18.444;2023-11-19T13:33:25;12.80;35.90
65462;DHT22;53236;43.666;18.444;2023-11-19T13:35:51;12.50;37.90
65462;DHT22;53236;43.666;18.444;2023-11-19T13:38:17;12.20;39.80
65462;DHT22;53236;43.666;18.444;2023-11-19T13:40:42;12.10;38.60
65462;DHT22;53236;43.666;18.444;2023-11-19T13:43:08;11.90;38.80
65462;DHT22;53236;43.666;18.444;2023-11-19T13:45:34;11.80;39.20
65462;DHT22;53236;43.666;18.444;2023-11-19T13:48:00;11.60;38.40
65462;DHT22;53236;43.666;18.444;2023-11-19T13:50:25;11.60;38.80
65462;DHT22;53236;43.666;18.444;2023-11-19T13:52:51;11.60;41.50
65462;DHT22;53236;43.666;18.444;2023-11-19T13:55:17;11.50;41.20
65462;DHT22;53236;43.666;18.444;2023-11-19T13:57:43;11.60;40.30
65462;DHT22;53236;43.666;18.444;2023-11-19T14:00:12;11.70;40.40
65462;DHT22;53236;43.666;18.444;2023-11-19T14:02:39;11.70;42.10
65462;DHT22;53236;43.666;18.444;2023-11-19T14:05:06;11.70;42.20
65462;DHT22;53236;43.666;18.444;2023-11-19T14:07:32;11.80;42.50
65462;DHT22;53236;43.666;18.444;2023-11-19T14:09:58;11.80;42.70
65462;DHT22;53236;43.666;18.444;2023-11-19T14:12:24;11.80;45.00
65462;DHT22;53236;43.666;18.444;2023-11-19T14:14:50;11.70;43.00
65462;DHT22;53236;43.666;18.444;2023-11-19T14:17:15;11.70;42.00
65462;DHT22;53236;43.666;18.444;2023-11-19T14:19:42;11.60;42.90
65462;DHT22;53236;43.666;18.444;2023-11-19T14:22:08;11.40;44.70
65462;DHT22;53236;43.666;18.444;2023-11-19T14:24:34;11.30;45.80
65462;DHT22;53236;43.666;18.444;2023-11-19T14:27:00;11.00;47.80
65462;DHT22;53236;43.666;18.444;2023-11-19T14:29:27;10.80;48.60
65462;DHT22;53236;43.666;18.444;2023-11-19T14:31:55;10.40;50.00
65462;DHT22;53236;43.666;18.444;2023-11-19T14:34:21;10.20;50.60
65462;DHT22;53236;43.666;18.444;2023-11-19T14:36:46;10.00;51.10
65462;DHT22;53236;43.666;18.444;2023-11-19T14:39:13;9.60;53.20
65462;DHT22;53236;43.666;18.444;2023-11-19T14:41:38;9.50;54.20
65462;DHT22;53236;43.666;18.444;2023-11-19T14:44:05;9.20;54.70
65462;DHT22;53236;43.666;18.444;2023-11-19T14:46:31;8.90;55.60
65462;DHT22;53236;43.666;18.444;2023-11-19T14:48:57;8.90;56.80
65462;DHT22;53236;43.666;18.444;2023-11-19T14:51:22;8.80;58.20
65462;DHT22;53236;43.666;18.444;2023-11-19T14:53:48;8.70;58.80
65462;DHT22;53236;43.666;18.444;2023-11-19T14:56:14;8.70;59.40
65462;DHT22;53236;43.666;18.444;2023-11-19T14:58:40;8.60;60.60
65462;DHT22;53236;43.666;18.444;2023-11-19T15:01:06;8.40;62.10
65462;DHT22;53236;43.666;18.444;2023-11-19T15:03:33;8.20;62.60
65462;DHT22;53236;43.666;18.444;2023-11-19T15:05:59;8.00;63.10
65462;DHT22;53236;43.666;18.444;2023-11-19T15:08:25;7.80;63.80
65462;DHT22;53236;43.666;18.444;2023-11-19T15:10:51;7.50;64.40
65462;DHT22;53236;43.666;18.444;2023-11-19T15:13:18;7.40;64.90
65462;DHT22;53236;43.666;18.444;2023-11-19T15:15:44;7.20;65.70
65462;DHT22;53236;43.666;18.444;2023-11-19T15:18:09;7.10;66.20
65462;DHT22;53236;43.666;18.444;2023-11-19T15:20:35;7.00;66.30
65462;DHT22;53236;43.666;18.444;2023-11-19T15:23:01;6.90;67.30
65462;DHT22;53236;43.666;18.444;2023-11-19T15:25:27;7.00;68.30
65462;DHT22;53236;43.666;18.444;2023-11-19T15:27:53;7.20;66.30
65462;DHT22;53236;43.666;18.444;2023-11-19T15:30:19;7.20;65.30
65462;DHT22;53236;43.666;18.444;2023-11-19T15:32:45;7.20;64.80
65462;DHT22;53236;43.666;18.444;2023-11-19T15:35:11;7.10;64.30
65462;DHT22;53236;43.666;18.444;2023-11-19T15:37:38;7.00;64.10
65462;DHT22;53236;43.666;18.444;2023-11-19T15:40:06;6.90;64.20
65462;DHT22;53236;43.666;18.444;2023-11-19T15:42:36;6.80;65.10
65462;DHT22;53236;43.666;18.444;2023-11-19T15:45:02;6.70;64.80
65462;DHT22;53236;43.666;18.444;2023-11-19T15:47:30;6.60;65.50